Wetterstation Vordersexau
Wetterdaten: Woche 30.04.12 - 06.05.12 (KW18)
Datum Zeit Temp. A. Feuchte A. Luftdruck Regen Wind Richtung Taupunkt Windchill Windben
30.04.2012 00:00 11,6 C 81 % 1012,6 hPa 0,0 l/m 0,0 km/h O-NO 8,5 C 11,6 C 0,0 km/h
30.04.2012 01:00 12,3 C 82 % 1012,9 hPa 0,0 l/m 0,0 km/h W-NW 9,3 C 12,3 C 0,0 km/h
30.04.2012 02:00 10,3 C 82 % 1013,0 hPa 0,0 l/m 0,0 km/h W 7,4 C 10,3 C 0,0 km/h
30.04.2012 03:00 11,6 C 83 % 1013,5 hPa 0,0 l/m 0,0 km/h S-SW 8,8 C 11,6 C 0,0 km/h
30.04.2012 04:00 11,9 C 84 % 1014,4 hPa 0,0 l/m 0,0 km/h O-NO 9,3 C 11,9 C 0,0 km/h
30.04.2012 05:00 11,3 C 84 % 1014,3 hPa 0,0 l/m 0,0 km/h O 8,7 C 11,3 C 0,0 km/h
30.04.2012 06:00 11,0 C 84 % 1013,5 hPa 0,0 l/m 0,0 km/h NO 8,4 C 11,0 C 0,0 km/h
30.04.2012 07:00 12,1 C 84 % 1013,5 hPa 0,0 l/m 0,0 km/h W-NW 9,5 C 12,1 C 0,0 km/h
30.04.2012 08:00 16,7 C 74 % 1013,2 hPa 0,0 l/m 4,5 km/h SW 12,0 C 16,7 C 2,5 km/h
30.04.2012 09:00 14,9 C 79 % 1012,4 hPa 0,0 l/m 0,6 km/h W-NW 11,3 C 14,9 C 0,4 km/h
30.04.2012 10:00 17,4 C 75 % 1011,5 hPa 0,0 l/m 1,9 km/h W 12,9 C 17,4 C 1,1 km/h
30.04.2012 11:00 19,9 C 66 % 1010,7 hPa 0,0 l/m 3,2 km/h W-SW 13,4 C 19,9 C 1,8 km/h
30.04.2012 12:00 19,3 C 69 % 1010,1 hPa 0,0 l/m 11,7 km/h SW 13,5 C 17,3 C 6,5 km/h
30.04.2012 13:00 20,2 C 68 % 1009,7 hPa 0,0 l/m 10,4 km/h S 14,1 C 18,7 C 5,8 km/h
30.04.2012 14:00 20,9 C 66 % 1009,0 hPa 0,0 l/m 4,5 km/h W 14,3 C 20,9 C 2,5 km/h
30.04.2012 15:00 26,9 C 52 % 1008,4 hPa 0,0 l/m 4,5 km/h W-SW 16,2 C 26,9 C 2,5 km/h
30.04.2012 16:00 25,1 C 53 % 1007,8 hPa 0,0 l/m 8,4 km/h S-SW 14,8 C 24,6 C 4,7 km/h
30.04.2012 17:00 22,6 C 61 % 1007,5 hPa 0,0 l/m 3,2 km/h W 14,7 C 22,6 C 1,8 km/h
30.04.2012 18:00 21,8 C 61 % 1007,1 hPa 0,0 l/m 1,9 km/h S 13,9 C 21,8 C 1,1 km/h
30.04.2012 19:00 19,9 C 66 % 1006,7 hPa 0,0 l/m 0,0 km/h SO 13,4 C 19,9 C 0,0 km/h
30.04.2012 20:00 17,6 C 73 % 1006,5 hPa 0,0 l/m 0,0 km/h O 12,7 C 17,6 C 0,0 km/h
30.04.2012 21:00 15,8 C 79 % 1007,1 hPa 0,0 l/m 0,0 km/h S-SW 12,2 C 15,8 C 0,0 km/h
30.04.2012 22:00 15,9 C 80 % 1008,5 hPa 0,0 l/m 1,3 km/h S 12,5 C 15,9 C 0,7 km/h
30.04.2012 23:00 13,5 C 69 % 1010,3 hPa 0,0 l/m 38,2 km/h S 7,9 C 4,3 C 21,2 km/h
01.05.2012 00:00 13,1 C 66 % 1012,0 hPa 0,0 l/m 35,0 km/h SW 6,9 C 4,2 C 19,4 km/h
01.05.2012 01:00 13,3 C 64 % 1012,7 hPa 0,0 l/m 15,6 km/h SW 6,6 C 8,9 C 8,6 km/h
01.05.2012 02:00 13,3 C 62 % 1012,9 hPa 0,0 l/m 9,7 km/h SW 6,2 C 11,4 C 5,4 km/h
01.05.2012 03:00 13,1 C 62 % 1013,2 hPa 0,0 l/m 24,6 km/h SW 6,0 C 6,1 C 13,7 km/h
01.05.2012 04:00 12,7 C 63 % 1013,7 hPa 0,0 l/m 3,2 km/h NO 5,8 C 12,7 C 1,8 km/h
01.05.2012 05:00 11,6 C 67 % 1013,3 hPa 0,0 l/m 0,0 km/h O-SO 5,7 C 11,6 C 0,0 km/h
01.05.2012 06:00 9,9 C 74 % 1014,0 hPa 0,0 l/m 0,0 km/h O 5,5 C 9,9 C 0,0 km/h
01.05.2012 07:00 11,3 C 75 % 1014,5 hPa 0,0 l/m 0,0 km/h O-NO 7,0 C 11,3 C 0,0 km/h
01.05.2012 08:00 19,4 C 58 % 1015,0 hPa 0,0 l/m 0,0 km/h W-NW 10,9 C 19,4 C 0,0 km/h
01.05.2012 09:00 20,8 C 43 % 1015,5 hPa 0,0 l/m 0,0 km/h W-SW 7,8 C 20,8 C 0,0 km/h
01.05.2012 10:00 17,3 C 53 % 1016,0 hPa 0,0 l/m 0,0 km/h SW 7,6 C 17,3 C 0,0 km/h
01.05.2012 11:00 20,8 C 45 % 1015,7 hPa 0,0 l/m 0,0 km/h SO 8,4 C 20,8 C 0,0 km/h
01.05.2012 12:00 22,0 C 44 % 1015,5 hPa 0,0 l/m 0,0 km/h SW 9,2 C 22,0 C 0,0 km/h
01.05.2012 13:00 20,5 C 45 % 1015,3 hPa 0,0 l/m 3,2 km/h W-SW 8,2 C 20,5 C 1,8 km/h
01.05.2012 14:00 18,8 C 49 % 1015,4 hPa 0,0 l/m 0,0 km/h N 7,9 C 18,8 C 0,0 km/h
01.05.2012 15:00 20,8 C 45 % 1015,3 hPa 0,0 l/m 14,3 km/h W-NW 8,4 C 18,4 C 7,9 km/h
01.05.2012 16:00 20,9 C 45 % 1014,6 hPa 0,0 l/m 0,0 km/h N 8,5 C 20,9 C 0,0 km/h
01.05.2012 17:00 20,2 C 46 % 1014,4 hPa 0,0 l/m 0,0 km/h N 8,2 C 20,2 C 0,0 km/h
01.05.2012 18:00 19,6 C 49 % 1014,0 hPa 0,0 l/m 1,9 km/h N-NO 8,6 C 19,6 C 1,1 km/h
01.05.2012 19:00 18,8 C 53 % 1014,2 hPa 0,0 l/m 2,6 km/h N-NO 9,0 C 18,8 C 1,4 km/h
01.05.2012 20:00 17,2 C 57 % 1014,2 hPa 0,0 l/m 1,3 km/h N-NO 8,6 C 17,2 C 0,7 km/h
01.05.2012 21:00 15,2 C 63 % 1014,4 hPa 0,0 l/m 0,0 km/h NO 8,2 C 15,2 C 0,0 km/h
01.05.2012 22:00 14,1 C 70 % 1014,1 hPa 0,0 l/m 0,0 km/h O-NO 8,7 C 14,1 C 0,0 km/h
01.05.2012 23:00 13,8 C 73 % 1013,7 hPa 0,0 l/m 0,0 km/h O-NO 9,0 C 13,8 C 0,0 km/h
02.05.2012 00:00 13,5 C 74 % 1013,1 hPa 0,0 l/m 0,0 km/h O-NO 9,0 C 13,5 C 0,0 km/h
02.05.2012 01:00 13,2 C 77 % 1012,2 hPa 0,0 l/m 0,0 km/h O-SO 9,3 C 13,2 C 0,0 km/h
02.05.2012 02:00 12,2 C 79 % 1011,2 hPa 0,0 l/m 0,0 km/h S-SO 8,7 C 12,2 C 0,0 km/h
02.05.2012 03:00 11,8 C 83 % 1011,3 hPa 1,8 l/m 15,6 km/h N-NO 9,0 C 7,1 C 8,6 km/h
02.05.2012 04:00 11,6 C 83 % 1011,2 hPa 3,9 l/m 0,0 km/h S-SO 8,8 C 11,6 C 0,0 km/h
02.05.2012 05:00 10,8 C 83 % 1011,2 hPa 0,7 l/m 0,0 km/h O-NO 8,0 C 10,8 C 0,0 km/h
02.05.2012 06:00 10,0 C 83 % 1010,9 hPa 0,0 l/m 0,0 km/h O-SO 7,2 C 10,0 C 0,0 km/h
02.05.2012 07:00 11,6 C 81 % 1011,2 hPa 0,0 l/m 0,0 km/h S 8,5 C 11,6 C 0,0 km/h
02.05.2012 08:00 13,5 C 84 % 1011,6 hPa 0,0 l/m 5,8 km/h S-SO 10,8 C 13,5 C 3,2 km/h
02.05.2012 09:00 18,1 C 78 % 1012,0 hPa 0,0 l/m 0,0 km/h W-SW 14,2 C 18,1 C 0,0 km/h
02.05.2012 10:00 19,3 C 67 % 1012,3 hPa 0,0 l/m 24,0 km/h W 13,0 C 14,6 C 13,3 km/h
02.05.2012 11:00 18,3 C 67 % 1012,7 hPa 0,0 l/m 15,6 km/h SW 12,1 C 15,0 C 8,6 km/h
02.05.2012 12:00 17,6 C 67 % 1012,8 hPa 0,0 l/m 36,9 km/h W-NW 11,4 C 10,5 C 20,5 km/h
02.05.2012 13:00 19,1 C 63 % 1012,8 hPa 0,0 l/m 21,4 km/h W 11,9 C 14,8 C 11,9 km/h
02.05.2012 14:00 20,4 C 57 % 1013,2 hPa 0,0 l/m 19,4 km/h W-SW 11,6 C 16,8 C 10,8 km/h
02.05.2012 15:00 19,9 C 54 % 1013,1 hPa 0,0 l/m 45,4 km/h W-SW 10,3 C 13,2 C 25,2 km/h
02.05.2012 16:00 20,3 C 51 % 1013,4 hPa 0,0 l/m 25,9 km/h W-SW 9,8 C 15,7 C 14,4 km/h
02.05.2012 17:00 20,2 C 49 % 1013,5 hPa 0,0 l/m 33,0 km/h SW 9,1 C 14,7 C 18,4 km/h
02.05.2012 18:00 19,4 C 49 % 1013,6 hPa 0,0 l/m 11,7 km/h W-SW 8,4 C 17,4 C 6,5 km/h
02.05.2012 19:00 17,2 C 54 % 1013,4 hPa 0,0 l/m 27,9 km/h W 7,8 C 11,1 C 15,5 km/h
02.05.2012 20:00 12,9 C 65 % 1013,8 hPa 0,0 l/m 0,0 km/h S-SW 6,5 C 12,9 C 0,0 km/h
02.05.2012 21:00 9,6 C 73 % 1014,2 hPa 0,0 l/m 0,0 km/h S-SO 5,0 C 9,6 C 0,0 km/h
02.05.2012 22:00 8,9 C 80 % 1014,6 hPa 0,0 l/m 0,0 km/h SO 5,6 C 8,9 C 0,0 km/h
02.05.2012 23:00 7,8 C 81 % 1014,4 hPa 0,0 l/m 0,0 km/h O-NO 4,7 C 7,8 C 0,0 km/h
03.05.2012 00:00 8,4 C 82 % 1014,3 hPa 0,0 l/m 0,0 km/h NO 5,5 C 8,4 C 0,0 km/h
03.05.2012 01:00 7,4 C 83 % 1013,6 hPa 0,0 l/m 0,0 km/h NO 4,7 C 7,4 C 0,0 km/h
03.05.2012 02:00 6,2 C 84 % 1013,6 hPa 0,0 l/m 0,0 km/h SO 3,7 C 6,2 C 0,0 km/h
03.05.2012 03:00 5,8 C 84 % 1013,9 hPa 0,0 l/m 0,0 km/h SO 3,3 C 5,8 C 0,0 km/h
03.05.2012 04:00 5,3 C 85 % 1013,7 hPa 0,0 l/m 0,0 km/h O-SO 3,0 C 5,3 C 0,0 km/h
03.05.2012 05:00 4,9 C 84 % 1013,4 hPa 0,0 l/m 0,0 km/h O-SO 2,4 C 4,9 C 0,0 km/h
03.05.2012 06:00 4,8 C 84 % 1013,2 hPa 0,0 l/m 0,0 km/h O-SO 2,3 C 4,8 C 0,0 km/h
03.05.2012 07:00 6,4 C 83 % 1013,2 hPa 0,0 l/m 0,0 km/h SO 3,7 C 6,4 C 0,0 km/h
03.05.2012 08:00 15,9 C 73 % 1013,1 hPa 0,0 l/m 0,0 km/h W-SW 11,1 C 15,9 C 0,0 km/h
03.05.2012 09:00 20,7 C 52 % 1012,9 hPa 0,0 l/m 0,0 km/h NW 10,5 C 20,7 C 0,0 km/h
03.05.2012 10:00 22,7 C 45 % 1012,6 hPa 0,0 l/m 0,0 km/h W-SW 10,1 C 22,7 C 0,0 km/h
03.05.2012 11:00 21,9 C 46 % 1012,0 hPa 0,0 l/m 1,9 km/h W-SW 9,7 C 21,9 C 1,1 km/h
03.05.2012 12:00 21,9 C 47 % 1011,3 hPa 0,0 l/m 7,8 km/h N-NW 10,1 C 21,4 C 4,3 km/h
03.05.2012 13:00 22,4 C 48 % 1010,8 hPa 0,0 l/m 7,8 km/h W-SW 10,8 C 21,9 C 4,3 km/h
03.05.2012 14:00 22,6 C 42 % 1010,2 hPa 0,0 l/m 24,6 km/h SW 9,0 C 19,0 C 13,7 km/h
03.05.2012 15:00 25,5 C 37 % 1009,6 hPa 0,0 l/m 15,6 km/h W-SW 9,7 C 23,8 C 8,6 km/h
03.05.2012 16:00 22,8 C 41 % 1008,9 hPa 0,0 l/m 13,6 km/h S 8,9 C 20,9 C 7,6 km/h
03.05.2012 17:00 20,1 C 47 % 1008,5 hPa 0,0 l/m 14,3 km/h S-SO 8,4 C 17,5 C 7,9 km/h
03.05.2012 18:00 25,5 C 38 % 1008,1 hPa 0,0 l/m 6,5 km/h W-SW 10,1 C 25,5 C 3,6 km/h
03.05.2012 19:00 22,4 C 41 % 1007,5 hPa 0,0 l/m 1,9 km/h W-SW 8,5 C 22,4 C 1,1 km/h
03.05.2012 20:00 16,4 C 50 % 1007,5 hPa 0,0 l/m 0,0 km/h O-NO 6,0 C 16,4 C 0,0 km/h
03.05.2012 21:00 13,0 C 65 % 1007,8 hPa 0,0 l/m 0,0 km/h SO 6,6 C 13,0 C 0,0 km/h
03.05.2012 22:00 10,6 C 72 % 1008,2 hPa 0,0 l/m 0,0 km/h SO 5,8 C 10,6 C 0,0 km/h
03.05.2012 23:00 9,3 C 77 % 1008,4 hPa 0,0 l/m 0,0 km/h O-NO 5,5 C 9,3 C 0,0 km/h
04.05.2012 00:00 8,4 C 80 % 1008,5 hPa 0,0 l/m 0,0 km/h O-NO 5,2 C 8,4 C 0,0 km/h
04.05.2012 01:00 7,8 C 81 % 1008,4 hPa 0,0 l/m 0,0 km/h O-NO 4,7 C 7,8 C 0,0 km/h
04.05.2012 02:00 7,3 C 82 % 1008,1 hPa 0,0 l/m 0,0 km/h O 4,4 C 7,3 C 0,0 km/h
04.05.2012 03:00 6,8 C 83 % 1007,5 hPa 0,0 l/m 0,0 km/h O 4,1 C 6,8 C 0,0 km/h
04.05.2012 04:00 6,4 C 84 % 1007,3 hPa 0,0 l/m 0,0 km/h SO 3,9 C 6,4 C 0,0 km/h
04.05.2012 05:00 5,6 C 84 % 1007,0 hPa 0,0 l/m 0,0 km/h O-NO 3,1 C 5,6 C 0,0 km/h
04.05.2012 06:00 5,4 C 84 % 1006,8 hPa 0,0 l/m 0,0 km/h O-SO 2,9 C 5,4 C 0,0 km/h
04.05.2012 07:00 7,1 C 84 % 1006,7 hPa 0,0 l/m 0,0 km/h O-NO 4,6 C 7,1 C 0,0 km/h
04.05.2012 08:00 18,6 C 61 % 1006,5 hPa 0,0 l/m 0,0 km/h S-SO 10,9 C 18,6 C 0,0 km/h
04.05.2012 09:00 22,9 C 49 % 1006,1 hPa 0,0 l/m 0,0 km/h W 11,6 C 22,9 C 0,0 km/h
04.05.2012 10:00 24,2 C 46 % 1005,8 hPa 0,0 l/m 3,2 km/h N-NO 11,8 C 24,2 C 1,8 km/h
04.05.2012 11:00 24,5 C 41 % 1005,1 hPa 0,0 l/m 0,0 km/h SO 10,4 C 24,5 C 0,0 km/h
04.05.2012 12:00 24,9 C 40 % 1004,5 hPa 0,0 l/m 5,8 km/h W-SW 10,4 C 24,9 C 3,2 km/h
04.05.2012 13:00 26,1 C 34 % 1003,7 hPa 0,0 l/m 1,9 km/h NW 9,0 C 26,1 C 1,1 km/h
04.05.2012 14:00 26,4 C 30 % 1003,1 hPa 0,0 l/m 3,2 km/h W-NW 7,4 C 26,4 C 1,8 km/h
04.05.2012 15:00 29,5 C 28 % 1002,2 hPa 0,0 l/m 12,3 km/h W-SW 9,1 C 28,9 C 6,8 km/h
04.05.2012 16:00 30,3 C 26 % 1001,6 hPa 0,0 l/m 0,0 km/h W-SW 8,6 C 30,3 C 0,0 km/h
04.05.2012 17:00 24,7 C 32 % 1001,4 hPa 0,0 l/m 0,0 km/h W-SW 6,9 C 24,7 C 0,0 km/h
04.05.2012 18:00 19,6 C 49 % 1002,1 hPa 0,0 l/m 15,6 km/h SO 8,6 C 16,6 C 8,6 km/h
04.05.2012 19:00 20,3 C 46 % 1001,7 hPa 0,0 l/m 0,0 km/h O-SO 8,3 C 20,3 C 0,0 km/h
04.05.2012 20:00 15,8 C 61 % 1001,9 hPa 0,0 l/m 0,0 km/h O 8,3 C 15,8 C 0,0 km/h
04.05.2012 21:00 13,9 C 67 % 1001,5 hPa 0,0 l/m 0,0 km/h O-SO 7,9 C 13,9 C 0,0 km/h
04.05.2012 22:00 12,9 C 69 % 1001,5 hPa 0,0 l/m 0,0 km/h S-SW 7,4 C 12,9 C 0,0 km/h
04.05.2012 23:00 13,5 C 71 % 1003,3 hPa 0,0 l/m 5,8 km/h SW 8,3 C 13,5 C 3,2 km/h
05.05.2012 00:00 14,4 C 72 % 1004,3 hPa 0,0 l/m 11,7 km/h SO 9,4 C 11,7 C 6,5 km/h
05.05.2012 01:00 12,2 C 82 % 1003,5 hPa 0,4 l/m 1,9 km/h SO 9,2 C 12,2 C 1,1 km/h
05.05.2012 02:00 12,4 C 83 % 1003,3 hPa 0,0 l/m 4,5 km/h S 9,6 C 12,4 C 2,5 km/h
05.05.2012 03:00 12,4 C 82 % 1003,1 hPa 0,0 l/m 0,0 km/h O-SO 9,4 C 12,4 C 0,0 km/h
05.05.2012 04:00 12,1 C 83 % 1003,0 hPa 0,0 l/m 0,0 km/h NO 9,3 C 12,1 C 0,0 km/h
05.05.2012 05:00 11,9 C 84 % 1002,6 hPa 0,0 l/m 0,0 km/h NO 9,3 C 11,9 C 0,0 km/h
05.05.2012 06:00 11,3 C 84 % 1002,7 hPa 0,4 l/m 0,0 km/h W 8,7 C 11,3 C 0,0 km/h
05.05.2012 07:00 12,6 C 81 % 1003,3 hPa 0,0 l/m 12,3 km/h SW 9,4 C 9,4 C 6,8 km/h
05.05.2012 08:00 13,0 C 79 % 1003,5 hPa 0,0 l/m 8,4 km/h SW 9,4 C 11,8 C 4,7 km/h
05.05.2012 09:00 13,3 C 78 % 1003,8 hPa 0,0 l/m 24,0 km/h SW 9,5 C 6,5 C 13,3 km/h
05.05.2012 10:00 13,8 C 78 % 1004,4 hPa 0,0 l/m 20,1 km/h SW 10,0 C 8,2 C 11,2 km/h
05.05.2012 11:00 13,3 C 80 % 1004,8 hPa 0,0 l/m 18,1 km/h SW 9,9 C 8,1 C 10,1 km/h
05.05.2012 12:00 15,8 C 74 % 1004,9 hPa 0,0 l/m 15,6 km/h S-SW 11,2 C 12,0 C 8,6 km/h
05.05.2012 13:00 14,4 C 77 % 1005,0 hPa 0,0 l/m 20,1 km/h W-SW 10,4 C 8,9 C 11,2 km/h
05.05.2012 14:00 16,3 C 71 % 1005,0 hPa 0,0 l/m 24,0 km/h S-SW 11,0 C 10,6 C 13,3 km/h
05.05.2012 15:00 17,2 C 66 % 1004,6 hPa 0,0 l/m 13,6 km/h W-SW 10,8 C 14,3 C 7,6 km/h
05.05.2012 16:00 19,0 C 59 % 1004,3 hPa 0,0 l/m 27,9 km/h S-SO 10,8 C 13,6 C 15,5 km/h
05.05.2012 17:00 18,3 C 55 % 1004,0 hPa 0,0 l/m 22,7 km/h N-NW 9,1 C 13,5 C 12,6 km/h
05.05.2012 18:00 19,3 C 62 % 1004,2 hPa 1,4 l/m 0,0 km/h O-NO 11,8 C 19,3 C 0,0 km/h
05.05.2012 19:00 18,2 C 65 % 1004,1 hPa 0,0 l/m 0,0 km/h O-NO 11,5 C 18,2 C 0,0 km/h
05.05.2012 20:00 12,4 C 79 % 1004,2 hPa 0,0 l/m 0,0 km/h O-NO 8,9 C 12,4 C 0,0 km/h
05.05.2012 21:00 11,4 C 83 % 1004,9 hPa 0,0 l/m 0,0 km/h SO 8,6 C 11,4 C 0,0 km/h
05.05.2012 22:00 10,9 C 84 % 1005,2 hPa 0,0 l/m 0,0 km/h O-SO 8,3 C 10,9 C 0,0 km/h
05.05.2012 23:00 11,3 C 84 % 1005,5 hPa 0,4 l/m 0,0 km/h N-NW 8,7 C 11,3 C 0,0 km/h
06.05.2012 00:00 10,1 C 84 % 1005,4 hPa 0,0 l/m 0,0 km/h O-SO 7,5 C 10,1 C 0,0 km/h
06.05.2012 01:00 9,4 C 84 % 1005,7 hPa 0,0 l/m 0,0 km/h SO 6,8 C 9,4 C 0,0 km/h
06.05.2012 02:00 9,9 C 83 % 1005,9 hPa 0,0 l/m 0,0 km/h S 7,2 C 9,9 C 0,0 km/h
06.05.2012 03:00 10,2 C 82 % 1006,0 hPa 0,4 l/m 1,9 km/h S-SW 7,3 C 10,2 C 1,1 km/h
06.05.2012 04:00 10,3 C 84 % 1006,0 hPa 0,4 l/m 11,7 km/h SO 7,7 C 7,0 C 6,5 km/h
06.05.2012 05:00 9,7 C 84 % 1006,2 hPa 0,4 l/m 0,0 km/h O-SO 7,1 C 9,7 C 0,0 km/h
06.05.2012 06:00 9,6 C 83 % 1006,3 hPa 0,0 l/m 0,0 km/h NO 6,9 C 9,6 C 0,0 km/h
06.05.2012 07:00 10,1 C 82 % 1007,0 hPa 0,0 l/m 0,0 km/h SO 7,2 C 10,1 C 0,0 km/h
06.05.2012 08:00 12,0 C 84 % 1007,2 hPa 0,0 l/m 7,8 km/h S-SW 9,4 C 11,1 C 4,3 km/h
06.05.2012 09:00 13,6 C 78 % 1007,7 hPa 0,0 l/m 0,0 km/h SW 9,8 C 13,6 C 0,0 km/h
06.05.2012 10:00 15,4 C 71 % 1008,0 hPa 0,0 l/m 20,1 km/h SW 10,2 C 10,2 C 11,2 km/h
06.05.2012 11:00 15,7 C 69 % 1008,5 hPa 0,0 l/m 20,1 km/h SW 10,0 C 10,6 C 11,2 km/h
06.05.2012 12:00 17,8 C 65 % 1008,3 hPa 0,0 l/m 25,3 km/h S-SW 11,1 C 12,4 C 14,0 km/h
06.05.2012 13:00 14,5 C 72 % 1008,2 hPa 0,0 l/m 20,7 km/h S-SW 9,5 C 8,9 C 11,5 km/h
06.05.2012 14:00 17,9 C 59 % 1008,0 hPa 0,0 l/m 30,5 km/h W-SW 9,8 C 11,7 C 16,9 km/h
06.05.2012 15:00 16,2 C 68 % 1008,9 hPa 0,0 l/m 4,5 km/h S-SW 10,3 C 16,2 C 2,5 km/h
06.05.2012 16:00 19,9 C 57 % 1008,7 hPa 0,0 l/m 18,8 km/h W-SW 11,1 C 16,3 C 10,4 km/h
06.05.2012 17:00 16,7 C 61 % 1008,6 hPa 0,0 l/m 16,2 km/h W-SW 9,1 C 12,9 C 9,0 km/h
06.05.2012 18:00 14,6 C 67 % 1009,1 hPa 0,0 l/m 7,1 km/h W 8,5 C 14,2 C 4,0 km/h
06.05.2012 19:00 15,0 C 68 % 1009,4 hPa 0,0 l/m 0,0 km/h W 9,1 C 15,0 C 0,0 km/h
06.05.2012 20:00 13,7 C 73 % 1010,3 hPa 0,0 l/m 0,0 km/h N-NO 8,9 C 13,7 C 0,0 km/h
06.05.2012 21:00 12,3 C 79 % 1010,9 hPa 0,0 l/m 0,0 km/h N-NO 8,8 C 12,3 C 0,0 km/h
06.05.2012 22:00 11,5 C 83 % 1011,9 hPa 0,0 l/m 0,0 km/h O-NO 8,7 C 11,5 C 0,0 km/h
06.05.2012 23:00 11,1 C 83 % 1012,3 hPa 0,0 l/m 0,0 km/h O-SO 8,3 C 11,1 C 0,0 km/h
Min-Datum _ 03.05.12 04.05.12 04.05.12 - 30.04.12 - 03.05.12 01.05.12 30.04.12
_ Min-Zeit 06:30 16:30 17:30 - 00:30 - 06:30 00:30 00:30
Minimum _ 4,8 C 26 % 1001,4 hPa - 0,0 km/h - 2,3 C 4,2 C 0,0 km/h
Max-Datum _ 04.05.12 03.05.12 01.05.12 02.05.12 02.05.12 - 30.04.12 04.05.12 02.05.12
_ Max-Zeit 16:30 04:30 10:30 04:30 15:30 - 15:30 16:30 15:30
Maximum _ 30,3 C 85 % 1016,0 hPa 3,9 l/m 45,4 km/h
W-SW
- 16,2 C 30,3 C 25,2 km/h
W-SW
Durchschnitt _ 15,3 C 67 % 1009,4 hPa #10,0 l/m 6,2 km/h W-SW 8,8 C 14,2 C 3,4 km/h
www.sexauwetter.de